createdAt,value
2022-08-17T00:01:38.510Z,61.25
2022-08-17T00:04:19.327Z,61.25
2022-08-17T00:06:46.372Z,61.38
2022-08-17T00:09:18.368Z,61.68
2022-08-17T00:12:35.568Z,62.00
2022-08-17T00:14:36.243Z,61.78
2022-08-17T00:17:06.533Z,61.75
2022-08-17T00:19:33.653Z,62.05
2022-08-17T00:22:32.748Z,62.35
2022-08-17T00:24:49.988Z,63.08
2022-08-17T00:27:17.382Z,63.32
2022-08-17T00:29:45.836Z,63.57
2022-08-17T00:33:16.081Z,63.76
2022-08-17T00:35:00.674Z,63.97
2022-08-17T00:37:27.714Z,64.22
2022-08-17T00:39:54.532Z,63.83
2022-08-17T00:42:21.156Z,63.57
2022-08-17T00:44:47.793Z,63.63
2022-08-17T00:47:14.411Z,63.65
2022-08-17T00:49:41.010Z,63.52
2022-08-17T00:52:16.599Z,63.17
2022-08-17T00:54:46.643Z,62.47
2022-08-17T00:57:15.518Z,61.95
2022-08-17T00:59:47.150Z,61.87
2022-08-17T01:02:40.368Z,61.80
2022-08-17T01:05:15.021Z,62.13
2022-08-17T01:07:42.987Z,62.50
2022-08-17T01:10:58.269Z,63.49
2022-08-17T01:13:02.409Z,63.74
2022-08-17T01:15:36.364Z,63.87
2022-08-17T01:18:05.396Z,64.10
2022-08-17T01:20:32.501Z,63.91
2022-08-17T01:23:20.830Z,63.94
2022-08-17T01:25:57.153Z,64.01
2022-08-17T01:28:33.482Z,63.82
2022-08-17T01:31:14.284Z,64.38
2022-08-17T01:33:41.035Z,64.46
2022-08-17T01:36:08.180Z,64.06
2022-08-17T01:38:37.225Z,64.65
2022-08-17T01:41:11.339Z,64.94
2022-08-17T01:43:44.231Z,64.58
2022-08-17T01:46:16.122Z,64.62
2022-08-17T01:48:43.834Z,64.99
2022-08-17T01:51:10.407Z,64.88
2022-08-17T01:53:41.594Z,64.95
2022-08-17T01:56:12.367Z,65.32
2022-08-17T01:58:40.811Z,65.60
2022-08-17T02:01:08.533Z,66.30
2022-08-17T02:03:36.815Z,66.41
2022-08-17T02:06:05.419Z,66.79
2022-08-17T02:08:39.258Z,66.84
2022-08-17T02:11:22.391Z,66.91
2022-08-17T02:13:57.947Z,67.49
2022-08-17T02:16:37.395Z,67.63
2022-08-17T02:19:10.574Z,67.51
2022-08-17T02:21:38.941Z,67.02
2022-08-17T02:24:08.600Z,67.60
2022-08-17T02:26:36.146Z,68.03
2022-08-17T02:29:04.087Z,68.67
2022-08-17T02:31:31.090Z,68.49
2022-08-17T02:34:04.131Z,68.21
2022-08-17T02:36:34.148Z,67.68
2022-08-17T02:39:05.677Z,68.28
2022-08-17T02:41:32.254Z,68.93
2022-08-17T02:43:58.796Z,69.17
2022-08-17T02:46:25.673Z,69.97
2022-08-17T02:48:52.236Z,69.96
2022-08-17T02:51:18.722Z,69.86
2022-08-17T02:53:53.710Z,69.87
2022-08-17T02:56:40.322Z,69.55
2022-08-17T02:59:06.984Z,69.97
2022-08-17T03:01:33.804Z,70.26
2022-08-17T03:04:01.216Z,70.29
2022-08-17T03:06:29.353Z,69.92
2022-08-17T03:08:56.062Z,70.08
2022-08-17T03:11:23.628Z,70.04
2022-08-17T03:13:50.449Z,70.16
2022-08-17T03:16:17.144Z,70.63
2022-08-17T03:21:24.314Z,70.71
2022-08-17T03:23:54.402Z,70.70
2022-08-17T03:26:22.625Z,71.08
2022-08-17T03:28:50.439Z,70.83
2022-08-17T03:31:18.623Z,70.36
2022-08-17T03:33:45.875Z,69.87
2022-08-17T03:36:12.682Z,69.43
2022-08-17T03:38:39.641Z,70.31
2022-08-17T03:43:48.007Z,71.64
2022-08-17T03:46:35.088Z,71.58
2022-08-17T03:49:26.339Z,71.00
2022-08-17T03:52:12.894Z,71.41
2022-08-17T03:54:58.952Z,71.28
2022-08-17T03:57:26.208Z,71.36
2022-08-17T03:59:57.070Z,71.59
2022-08-17T04:02:32.605Z,71.50
2022-08-17T04:04:59.770Z,71.22
2022-08-17T04:07:29.918Z,71.36
2022-08-17T04:09:58.164Z,71.51
2022-08-17T04:12:26.491Z,71.71
2022-08-17T04:14:54.975Z,71.10
2022-08-17T04:17:30.838Z,71.26
2022-08-17T04:19:57.418Z,71.18
2022-08-17T04:22:32.790Z,71.69
2022-08-17T04:25:13.811Z,72.02
2022-08-17T04:27:40.397Z,72.25
2022-08-17T04:30:07.751Z,72.04
2022-08-17T04:33:00.829Z,72.10
2022-08-17T04:35:37.563Z,72.42
2022-08-17T04:38:05.245Z,72.68
2022-08-17T04:40:50.727Z,73.27
2022-08-17T04:43:21.090Z,73.48
2022-08-17T04:45:56.172Z,72.66
2022-08-17T04:48:36.499Z,72.08
2022-08-17T04:51:11.568Z,71.63
2022-08-17T04:53:41.420Z,71.24
2022-08-17T04:56:11.844Z,70.69
2022-08-17T04:58:50.224Z,70.01
2022-08-17T05:01:23.150Z,70.37
2022-08-17T05:03:51.440Z,70.27
2022-08-17T05:06:17.944Z,70.23
2022-08-17T05:08:44.403Z,69.69
2022-08-17T05:11:10.963Z,69.59
2022-08-17T05:13:37.456Z,69.91
2022-08-17T05:16:04.650Z,69.55
2022-08-17T05:18:31.878Z,69.26
2022-08-17T05:20:58.837Z,68.95
2022-08-17T05:23:27.367Z,68.45
2022-08-17T05:26:22.003Z,67.88
2022-08-17T05:28:59.691Z,68.39
2022-08-17T05:31:30.172Z,68.14
2022-08-17T05:33:57.050Z,68.46
2022-08-17T05:36:41.984Z,67.87
2022-08-17T05:39:10.769Z,67.67
2022-08-17T05:41:44.806Z,67.12
2022-08-17T05:44:11.336Z,67.33
2022-08-17T05:46:41.594Z,66.96
2022-08-17T05:49:08.609Z,66.98
2022-08-17T05:51:50.393Z,66.23
2022-08-17T05:54:56.354Z,65.57
2022-08-17T05:57:54.234Z,66.40
2022-08-17T06:00:30.546Z,66.18
2022-08-17T06:03:22.080Z,65.85
2022-08-17T06:06:05.337Z,65.67
2022-08-17T06:08:51.721Z,65.46
2022-08-17T06:11:21.428Z,64.47
2022-08-17T06:14:18.156Z,63.85
2022-08-17T06:16:50.023Z,63.30
2022-08-17T06:19:38.250Z,61.74
2022-08-17T06:22:08.589Z,61.21
2022-08-17T06:24:44.321Z,60.68
2022-08-17T06:27:37.168Z,60.37
2022-08-17T06:30:25.805Z,59.30
2022-08-17T06:32:55.202Z,57.39
2022-08-17T06:35:48.670Z,53.83
2022-08-17T06:38:56.255Z,50.66
2022-08-17T06:41:49.471Z,46.64
2022-08-17T06:44:49.933Z,44.74
2022-08-17T06:47:13.520Z,42.01
2022-08-17T06:49:55.278Z,39.34
2022-08-17T06:52:45.858Z,39.76
2022-08-17T06:55:46.856Z,38.61
2022-08-17T06:58:16.461Z,38.71
2022-08-17T07:00:46.982Z,39.03
2022-08-17T07:03:54.526Z,39.88
2022-08-17T07:06:26.718Z,36.90
2022-08-17T07:09:02.304Z,35.30
2022-08-17T07:11:42.418Z,36.11
2022-08-17T07:14:27.785Z,33.46
2022-08-17T07:17:01.625Z,31.33
2022-08-17T07:22:59.871Z,28.58
2022-08-17T07:25:30.399Z,27.48
2022-08-17T07:28:06.042Z,27.62
2022-08-17T07:30:50.919Z,28.07
2022-08-17T07:33:39.317Z,29.59
2022-08-17T07:36:29.617Z,28.91
2022-08-17T07:38:58.211Z,27.37
2022-08-17T07:41:53.219Z,26.68
2022-08-17T07:44:16.229Z,25.44
2022-08-17T07:47:11.672Z,25.45
2022-08-17T07:49:41.316Z,25.29
2022-08-17T07:52:51.256Z,25.18
2022-08-17T07:55:34.856Z,25.25
2022-08-17T07:58:02.047Z,25.29
2022-08-17T08:00:32.363Z,26.64
2022-08-17T08:03:31.858Z,28.52
2022-08-17T08:06:02.159Z,27.03
2022-08-17T08:08:42.610Z,26.34
2022-08-17T08:11:15.798Z,26.61
2022-08-17T08:13:45.533Z,25.97
2022-08-17T08:16:20.880Z,27.53
2022-08-17T08:18:55.826Z,25.19
2022-08-17T08:21:41.805Z,25.04
2022-08-17T08:24:40.123Z,25.06
2022-08-17T08:27:18.534Z,26.43
2022-08-17T08:29:57.639Z,26.46
2022-08-17T08:32:54.070Z,25.75
2022-08-17T08:35:30.851Z,25.94
2022-08-17T08:38:12.408Z,24.10
2022-08-17T08:40:48.049Z,23.13
2022-08-17T08:43:37.917Z,23.90
2022-08-17T08:46:15.691Z,22.69
2022-08-17T08:49:39.108Z,22.27
2022-08-17T08:52:24.486Z,23.70
2022-08-17T08:55:02.884Z,25.59
2022-08-17T08:57:38.380Z,25.64
2022-08-17T09:00:19.191Z,25.53
2022-08-17T09:02:51.845Z,26.68
2022-08-17T09:05:48.337Z,25.75
2022-08-17T09:08:50.338Z,25.68
2022-08-17T09:11:35.694Z,26.45
2022-08-17T09:14:33.585Z,27.27
2022-08-17T09:17:14.220Z,26.53
2022-08-17T09:19:57.599Z,26.46
2022-08-17T09:22:33.144Z,25.88
2022-08-17T09:25:27.235Z,24.96
2022-08-17T09:28:04.690Z,24.92
2022-08-17T09:31:02.439Z,23.23
2022-08-17T09:33:31.976Z,24.21
2022-08-17T09:36:04.822Z,23.53
2022-08-17T09:39:22.842Z,23.58
2022-08-17T09:41:59.307Z,24.11
2022-08-17T09:48:18.216Z,23.37
2022-08-17T09:51:05.342Z,22.54
2022-08-17T09:53:37.654Z,22.75
2022-08-17T09:56:19.751Z,23.00
2022-08-17T09:58:56.413Z,23.51
2022-08-17T10:01:46.989Z,23.10
2022-08-17T10:07:14.681Z,22.92
2022-08-17T10:12:47.084Z,19.90
2022-08-17T10:16:00.035Z,22.87
2022-08-17T10:18:42.884Z,20.75
2022-08-17T10:21:36.185Z,20.45
2022-08-17T10:24:41.041Z,20.74
2022-08-17T10:27:48.911Z,21.97
2022-08-17T10:30:23.276Z,23.00
2022-08-17T10:32:57.302Z,23.08
2022-08-17T10:35:47.710Z,23.58
2022-08-17T10:38:33.295Z,23.81
2022-08-17T10:41:40.878Z,24.08
2022-08-17T10:44:41.333Z,22.80
2022-08-17T10:47:17.843Z,22.63
2022-08-17T10:49:49.768Z,23.16
2022-08-17T10:52:19.682Z,23.44
2022-08-17T10:55:07.986Z,23.18
2022-08-17T10:57:45.306Z,22.99
2022-08-17T11:00:17.212Z,22.64
2022-08-17T11:02:51.710Z,22.78
2022-08-17T11:05:45.578Z,22.97
2022-08-17T11:08:30.368Z,22.62
2022-08-17T11:11:23.386Z,22.37
2022-08-17T11:14:07.515Z,22.00
2022-08-17T11:17:02.121Z,21.52
2022-08-17T11:19:59.754Z,20.19
2022-08-17T11:22:47.735Z,19.89
2022-08-17T11:25:20.763Z,19.81
2022-08-17T11:27:54.012Z,20.06
2022-08-17T11:30:47.093Z,20.79
2022-08-17T11:33:41.837Z,20.82
2022-08-17T11:36:14.899Z,20.89
2022-08-17T11:38:58.028Z,20.24
2022-08-17T11:41:51.088Z,20.72
2022-08-17T11:44:23.650Z,20.19
2022-08-17T11:47:27.146Z,20.97
2022-08-17T11:50:32.080Z,21.47
2022-08-17T11:52:58.915Z,21.82
2022-08-17T11:55:38.503Z,22.64
2022-08-17T11:58:27.151Z,22.50
2022-08-17T12:01:02.477Z,22.52
2022-08-17T12:03:32.117Z,23.09
2022-08-17T12:06:30.197Z,23.30
2022-08-17T12:09:09.255Z,23.07
2022-08-17T12:11:58.767Z,23.29
2022-08-17T12:15:05.989Z,22.84
2022-08-17T12:17:41.244Z,22.75
2022-08-17T12:20:27.965Z,23.37
2022-08-17T12:22:57.604Z,23.72
2022-08-17T12:25:38.630Z,23.13
2022-08-17T12:28:20.183Z,22.93
2022-08-17T12:30:52.157Z,23.49
2022-08-17T12:33:25.571Z,22.24
2022-08-17T12:36:00.334Z,21.60
2022-08-17T12:38:32.825Z,23.70
2022-08-17T12:41:20.811Z,25.25
2022-08-17T12:43:58.612Z,21.26
2022-08-17T12:46:25.881Z,21.25
2022-08-17T12:48:58.799Z,21.13
2022-08-17T12:51:26.061Z,21.29
2022-08-17T12:53:55.126Z,20.82
2022-08-17T12:56:23.743Z,20.64
2022-08-17T12:59:00.040Z,20.17
2022-08-17T13:01:29.303Z,20.29
2022-08-17T13:04:00.132Z,19.92
2022-08-17T13:06:33.343Z,19.86
2022-08-17T13:09:17.837Z,20.46
2022-08-17T13:11:55.426Z,21.19
2022-08-17T13:14:22.534Z,21.56
2022-08-17T13:16:56.111Z,21.79
2022-08-17T13:19:29.889Z,21.81
2022-08-17T13:22:15.581Z,21.92
2022-08-17T13:24:53.739Z,21.69
2022-08-17T13:27:22.457Z,22.07
2022-08-17T13:29:59.525Z,22.40
2022-08-17T13:32:36.472Z,22.48
2022-08-17T13:35:32.835Z,22.60
2022-08-17T13:38:16.975Z,22.55
2022-08-17T13:40:49.950Z,22.98
2022-08-17T13:43:46.578Z,23.14
2022-08-17T13:46:23.982Z,23.40
2022-08-17T13:49:03.505Z,23.79
2022-08-17T13:51:42.047Z,24.00
2022-08-17T13:54:23.979Z,24.61
2022-08-17T13:56:58.274Z,24.70
2022-08-17T13:59:54.584Z,24.60
2022-08-17T14:02:28.491Z,24.54
2022-08-17T14:04:57.610Z,24.75
2022-08-17T14:10:22.371Z,24.43
2022-08-17T14:12:50.898Z,24.15
2022-08-17T14:15:23.399Z,24.43
2022-08-17T14:18:10.101Z,24.60
2022-08-17T14:20:36.914Z,24.67
2022-08-17T14:23:03.847Z,24.33
2022-08-17T14:25:30.755Z,24.66
2022-08-17T14:27:57.634Z,24.30
2022-08-17T14:30:28.901Z,24.49
2022-08-17T14:32:58.259Z,24.02
2022-08-17T14:35:28.081Z,23.48
2022-08-17T14:37:55.720Z,23.52
2022-08-17T14:40:27.875Z,23.92
2022-08-17T14:42:59.858Z,23.85
2022-08-17T14:45:32.304Z,24.59
2022-08-17T14:48:10.132Z,24.57
2022-08-17T14:50:42.562Z,25.34
2022-08-17T14:53:12.428Z,26.22
2022-08-17T14:55:42.296Z,26.17
2022-08-17T14:58:09.885Z,26.94
2022-08-17T15:00:43.882Z,28.38
2022-08-17T15:03:12.160Z,29.24
2022-08-17T15:05:40.032Z,29.87
2022-08-17T15:08:07.886Z,30.51
2022-08-17T15:10:37.798Z,30.52
2022-08-17T15:13:04.670Z,30.55
2022-08-17T15:15:34.470Z,30.60
2022-08-17T15:18:02.586Z,31.09
2022-08-17T15:20:30.355Z,31.03
2022-08-17T15:23:01.146Z,30.74
2022-08-17T15:25:32.291Z,30.78
2022-08-17T15:28:03.576Z,31.04
2022-08-17T15:30:34.643Z,31.11
2022-08-17T15:33:04.457Z,31.53
2022-08-17T15:35:38.511Z,31.67
2022-08-17T15:38:12.004Z,31.45
2022-08-17T15:40:45.106Z,31.36
2022-08-17T15:43:15.739Z,31.77
2022-08-17T15:45:43.782Z,31.66
2022-08-17T15:48:12.302Z,31.79
2022-08-17T15:50:41.862Z,31.70
2022-08-17T15:53:10.935Z,31.81
2022-08-17T15:55:42.634Z,31.68
2022-08-17T15:58:12.539Z,31.50
2022-08-17T16:00:53.089Z,31.78
2022-08-17T16:04:01.602Z,31.86
2022-08-17T16:06:19.576Z,32.02
2022-08-17T16:08:46.734Z,31.89
2022-08-17T16:11:16.447Z,31.75
2022-08-17T16:13:54.879Z,31.40
2022-08-17T16:16:26.150Z,31.27
2022-08-17T16:18:58.863Z,31.32
2022-08-17T16:21:28.255Z,31.48
2022-08-17T16:26:41.169Z,31.16
2022-08-17T16:29:12.968Z,31.34
2022-08-17T16:31:41.969Z,31.37
2022-08-17T16:34:16.935Z,30.88
2022-08-17T16:36:54.996Z,30.88
2022-08-17T16:39:24.265Z,31.03
2022-08-17T16:41:51.600Z,31.14
2022-08-17T16:44:21.507Z,31.28
2022-08-17T16:46:48.827Z,31.19
2022-08-17T16:49:35.992Z,31.17
2022-08-17T16:52:10.859Z,31.14
2022-08-17T16:54:40.797Z,31.12
2022-08-17T16:57:07.935Z,31.07
2022-08-17T16:59:42.205Z,31.02
2022-08-17T17:05:06.795Z,31.21
2022-08-17T17:07:59.128Z,31.31
2022-08-17T17:13:44.401Z,31.89
2022-08-17T17:16:37.748Z,31.78
2022-08-17T17:19:35.002Z,31.74
2022-08-17T17:22:17.201Z,32.46
2022-08-17T17:24:58.586Z,32.57
2022-08-17T17:28:00.291Z,32.57
2022-08-17T17:33:40.777Z,33.26
2022-08-17T17:36:25.665Z,32.88
2022-08-17T17:44:48.389Z,33.16
2022-08-17T17:47:25.887Z,33.31
2022-08-17T17:49:52.684Z,33.18
2022-08-17T17:56:07.926Z,33.29
2022-08-17T17:59:25.728Z,33.41
2022-08-17T18:08:04.758Z,33.54
2022-08-17T18:10:50.250Z,33.77
2022-08-17T18:13:47.697Z,33.95
2022-08-17T18:16:15.599Z,34.27
2022-08-17T18:18:59.505Z,34.37
2022-08-17T18:21:36.575Z,34.76
2022-08-17T18:24:11.829Z,34.74
2022-08-17T18:33:29.284Z,34.99
2022-08-17T18:35:58.507Z,35.03
2022-08-17T18:38:38.125Z,35.15
2022-08-17T18:41:30.754Z,35.31
2022-08-17T18:44:16.381Z,35.71
2022-08-17T18:46:43.737Z,35.56
2022-08-17T18:49:19.762Z,35.51
2022-08-17T18:51:46.906Z,35.50
2022-08-17T18:54:22.727Z,35.80
2022-08-17T18:56:56.225Z,35.97
2022-08-17T18:59:34.773Z,36.45
2022-08-17T19:02:15.505Z,37.34
2022-08-17T19:05:13.312Z,37.36
2022-08-17T19:07:52.455Z,37.41
2022-08-17T19:10:46.315Z,37.93
2022-08-17T19:13:24.505Z,37.54
2022-08-17T19:16:15.070Z,37.79
2022-08-17T19:18:54.780Z,37.76
2022-08-17T19:21:39.206Z,38.19
2022-08-17T19:24:19.680Z,37.76
2022-08-17T19:27:22.023Z,38.16
2022-08-17T19:30:05.385Z,38.17
2022-08-17T19:32:35.355Z,38.79
2022-08-17T19:35:04.516Z,39.19
2022-08-17T19:37:55.045Z,39.37
2022-08-17T19:40:52.970Z,39.47
2022-08-17T19:43:26.394Z,39.69
2022-08-17T19:46:39.317Z,39.90
2022-08-17T19:49:33.225Z,40.03
2022-08-17T19:52:26.985Z,40.79
2022-08-17T19:55:01.740Z,40.46
2022-08-17T19:57:57.480Z,40.61
2022-08-17T20:00:24.914Z,40.93
2022-08-17T20:03:05.865Z,41.10
2022-08-17T20:06:09.168Z,41.24
2022-08-17T20:08:39.584Z,41.97
2022-08-17T20:11:12.134Z,42.29
2022-08-17T20:13:55.961Z,42.71
2022-08-17T20:16:23.509Z,42.82
2022-08-17T20:18:59.345Z,42.96
2022-08-17T20:21:37.353Z,43.20
2022-08-17T20:24:22.984Z,44.02
2022-08-17T20:26:58.564Z,43.41
2022-08-17T20:29:54.969Z,43.59
2022-08-17T20:32:31.874Z,43.54
2022-08-17T20:35:11.384Z,43.92
2022-08-17T20:37:44.460Z,43.94
2022-08-17T20:40:18.226Z,44.06
2022-08-17T20:42:45.449Z,43.56
2022-08-17T20:45:21.496Z,43.94
2022-08-17T20:48:18.495Z,44.33
2022-08-17T20:50:44.421Z,44.82
2022-08-17T20:53:13.660Z,44.71
2022-08-17T20:55:52.168Z,45.31
2022-08-17T20:58:29.950Z,45.70
2022-08-17T21:00:58.679Z,46.15
2022-08-17T21:03:26.820Z,46.10
2022-08-17T21:06:11.138Z,45.70
2022-08-17T21:08:59.302Z,45.57
2022-08-17T21:12:03.120Z,45.61
2022-08-17T21:14:32.093Z,45.53
2022-08-17T21:17:25.839Z,45.78
2022-08-17T21:20:18.510Z,46.24
2022-08-17T21:23:08.767Z,46.77
2022-08-17T21:26:04.516Z,47.35
2022-08-17T21:28:37.868Z,47.65
2022-08-17T21:31:29.799Z,48.20
2022-08-17T21:34:16.333Z,48.84
2022-08-17T21:36:51.025Z,48.91
2022-08-17T21:39:28.299Z,49.61
2022-08-17T21:41:59.900Z,49.24
2022-08-17T21:44:37.476Z,49.03
2022-08-17T21:47:13.077Z,49.56
2022-08-17T21:49:39.779Z,49.21
2022-08-17T21:52:07.570Z,49.20
2022-08-17T21:54:39.302Z,49.40
2022-08-17T21:57:18.142Z,50.01
2022-08-17T21:59:45.558Z,49.55
2022-08-17T22:02:21.670Z,49.57
2022-08-17T22:05:04.102Z,49.37
2022-08-17T22:07:45.881Z,49.62
2022-08-17T22:10:37.181Z,49.97
2022-08-17T22:13:16.818Z,50.40
2022-08-17T22:16:15.175Z,50.16
2022-08-17T22:18:43.922Z,50.03
2022-08-17T22:21:10.939Z,50.19
2022-08-17T22:24:00.185Z,49.69
2022-08-17T22:27:01.177Z,49.57
2022-08-17T22:29:57.451Z,49.25
2022-08-17T22:32:43.864Z,48.78
2022-08-17T22:35:24.617Z,48.83
2022-08-17T22:37:52.631Z,49.51
2022-08-17T22:40:32.132Z,49.99
2022-08-17T22:43:03.501Z,50.02
2022-08-17T22:45:30.557Z,50.50
2022-08-17T22:48:00.316Z,50.65
2022-08-17T22:50:30.937Z,50.25
2022-08-17T22:53:34.181Z,50.54
2022-08-17T22:56:19.505Z,50.54
2022-08-17T22:59:17.090Z,50.50
2022-08-17T23:01:46.226Z,50.30
2022-08-17T23:04:32.454Z,50.45
2022-08-17T23:06:59.647Z,50.43
2022-08-17T23:09:26.431Z,50.23
2022-08-17T23:11:58.872Z,50.24
2022-08-17T23:14:31.374Z,50.03
2022-08-17T23:16:59.441Z,50.46
2022-08-17T23:19:27.380Z,50.29
2022-08-17T23:21:58.324Z,50.11
2022-08-17T23:24:28.599Z,49.95
2022-08-17T23:26:57.380Z,49.76
2022-08-17T23:29:29.395Z,50.18
2022-08-17T23:31:59.947Z,50.76
2022-08-17T23:34:28.506Z,51.99
2022-08-17T23:36:56.244Z,52.63
2022-08-17T23:39:27.565Z,53.14
2022-08-17T23:41:57.405Z,52.94
2022-08-17T23:44:24.095Z,53.46
2022-08-17T23:46:52.594Z,53.28
2022-08-17T23:49:19.789Z,53.14
2022-08-17T23:51:48.395Z,53.15
2022-08-17T23:54:18.036Z,53.54
2022-08-17T23:56:47.417Z,53.98
2022-08-17T23:59:19.215Z,54.09
